LIPZ/VCE METAR and TAF weather

Enter ICAO airport designator
Station Type Date Time Source
LIPZ METAR 2020/07/15 01:20 UTC NOAA

LIPZ 150120Z 35003KT 330V030 CAVOK 19/12 Q1013 NOSIG


Station Type Date Time Source
LIPZ Decoded METAR 2020/07/15 01:20 UTC NOAA

Venezia / Tessera, Italy (LIPZ) 45-30N 012-20E 6M
Jul 14, 2020 - 09:20 PM EDT / 2020.07.15 0120 UTC
Wind: from the N (350 degrees) at 3 MPH (3 KT) (direction variable):0
Visibility: greater than 7 mile(s):0
Temperature: 66 F (19 C)
Dew Point: 53 F (12 C)
Relative Humidity: 63%
Pressure (altimeter): 29.91 in. Hg (1013 hPa)
ob: LIPZ 150120Z 35003KT 330V030 CAVOK 19/12 Q1013 NOSIG
cycle: 1

Station Type Date Time Source
LIPZ TAF 2020/07/14 18:21 UTC NOAA

TAF LIPZ 141700Z 1418/1524 VRB05KT CAVOK
BECMG 1512/1514 14010KT
BECMG 1520/1522 VRB05KT

Example: see airport list